sensor_id;sensor_type;location;lat;lon;timestamp;P1;durP1;ratioP1;P2;durP2;ratioP2
9496;SDS011;4786;51.270;4.456;2022-07-06T00:00:41;2.67;;;2.20;;
9496;SDS011;4786;51.270;4.456;2022-07-06T00:03:07;3.23;;;2.20;;
9496;SDS011;4786;51.270;4.456;2022-07-06T00:05:32;1.90;;;1.80;;
9496;SDS011;4786;51.270;4.456;2022-07-06T00:07:58;2.53;;;1.80;;
9496;SDS011;4786;51.270;4.456;2022-07-06T00:10:24;3.07;;;2.07;;
9496;SDS011;4786;51.270;4.456;2022-07-06T00:12:50;2.30;;;2.00;;
9496;SDS011;4786;51.270;4.456;2022-07-06T00:15:16;2.73;;;2.00;;
9496;SDS011;4786;51.270;4.456;2022-07-06T00:17:41;2.20;;;2.00;;
9496;SDS011;4786;51.270;4.456;2022-07-06T00:20:07;2.37;;;1.80;;
9496;SDS011;4786;51.270;4.456;2022-07-06T00:22:33;3.77;;;2.10;;
9496;SDS011;4786;51.270;4.456;2022-07-06T00:24:59;2.37;;;1.77;;
9496;SDS011;4786;51.270;4.456;2022-07-06T00:27:24;3.07;;;1.73;;
9496;SDS011;4786;51.270;4.456;2022-07-06T00:29:50;3.40;;;1.90;;
9496;SDS011;4786;51.270;4.456;2022-07-06T00:32:16;2.53;;;1.80;;
9496;SDS011;4786;51.270;4.456;2022-07-06T00:34:41;2.43;;;1.87;;
9496;SDS011;4786;51.270;4.456;2022-07-06T00:37:07;2.37;;;1.93;;
9496;SDS011;4786;51.270;4.456;2022-07-06T00:39:33;4.80;;;2.00;;
9496;SDS011;4786;51.270;4.456;2022-07-06T00:42:00;2.37;;;1.80;;
9496;SDS011;4786;51.270;4.456;2022-07-06T00:44:26;2.53;;;1.80;;
9496;SDS011;4786;51.270;4.456;2022-07-06T00:46:52;2.10;;;1.90;;
9496;SDS011;4786;51.270;4.456;2022-07-06T00:49:18;3.60;;;2.20;;
9496;SDS011;4786;51.270;4.456;2022-07-06T00:52:02;3.03;;;2.37;;
9496;SDS011;4786;51.270;4.456;2022-07-06T00:54:30;1.80;;;1.70;;
9496;SDS011;4786;51.270;4.456;2022-07-06T00:56:57;2.33;;;2.03;;
9496;SDS011;4786;51.270;4.456;2022-07-06T00:59:23;2.47;;;1.73;;
9496;SDS011;4786;51.270;4.456;2022-07-06T01:01:50;2.30;;;2.03;;
9496;SDS011;4786;51.270;4.456;2022-07-06T01:04:16;2.77;;;2.10;;
9496;SDS011;4786;51.270;4.456;2022-07-06T01:06:42;1.97;;;1.87;;
9496;SDS011;4786;51.270;4.456;2022-07-06T01:09:11;2.17;;;1.97;;
9496;SDS011;4786;51.270;4.456;2022-07-06T01:11:36;2.57;;;1.83;;
9496;SDS011;4786;51.270;4.456;2022-07-06T01:14:02;2.27;;;1.70;;
9496;SDS011;4786;51.270;4.456;2022-07-06T01:16:28;1.83;;;1.70;;
9496;SDS011;4786;51.270;4.456;2022-07-06T01:18:54;3.23;;;2.10;;
9496;SDS011;4786;51.270;4.456;2022-07-06T01:21:20;2.63;;;1.93;;
9496;SDS011;4786;51.270;4.456;2022-07-06T01:23:47;2.50;;;1.80;;
9496;SDS011;4786;51.270;4.456;2022-07-06T01:26:14;4.00;;;2.03;;
9496;SDS011;4786;51.270;4.456;2022-07-06T01:28:43;3.73;;;1.97;;
9496;SDS011;4786;51.270;4.456;2022-07-06T01:31:19;2.63;;;2.00;;
9496;SDS011;4786;51.270;4.456;2022-07-06T01:33:47;2.97;;;1.90;;
9496;SDS011;4786;51.270;4.456;2022-07-06T01:36:15;2.10;;;1.87;;
9496;SDS011;4786;51.270;4.456;2022-07-06T01:38:48;3.73;;;1.87;;
9496;SDS011;4786;51.270;4.456;2022-07-06T01:41:16;3.53;;;2.00;;
9496;SDS011;4786;51.270;4.456;2022-07-06T01:43:43;1.73;;;1.60;;
9496;SDS011;4786;51.270;4.456;2022-07-06T01:46:10;2.97;;;1.90;;
9496;SDS011;4786;51.270;4.456;2022-07-06T01:48:36;3.23;;;2.00;;
9496;SDS011;4786;51.270;4.456;2022-07-06T01:51:03;4.97;;;2.17;;
9496;SDS011;4786;51.270;4.456;2022-07-06T01:53:29;2.47;;;1.83;;
9496;SDS011;4786;51.270;4.456;2022-07-06T01:55:55;2.30;;;1.87;;
9496;SDS011;4786;51.270;4.456;2022-07-06T01:58:21;1.93;;;1.70;;
9496;SDS011;4786;51.270;4.456;2022-07-06T02:00:48;2.10;;;1.90;;
9496;SDS011;4786;51.270;4.456;2022-07-06T02:03:14;5.10;;;2.07;;
9496;SDS011;4786;51.270;4.456;2022-07-06T02:05:40;3.87;;;2.00;;
9496;SDS011;4786;51.270;4.456;2022-07-06T02:08:05;3.10;;;2.03;;
9496;SDS011;4786;51.270;4.456;2022-07-06T02:10:32;4.07;;;2.00;;
9496;SDS011;4786;51.270;4.456;2022-07-06T02:12:58;3.60;;;2.13;;
9496;SDS011;4786;51.270;4.456;2022-07-06T02:15:23;2.50;;;2.30;;
9496;SDS011;4786;51.270;4.456;2022-07-06T02:17:49;3.47;;;1.93;;
9496;SDS011;4786;51.270;4.456;2022-07-06T02:20:15;1.70;;;1.50;;
9496;SDS011;4786;51.270;4.456;2022-07-06T02:22:41;3.00;;;1.97;;
9496;SDS011;4786;51.270;4.456;2022-07-06T02:25:07;4.77;;;1.90;;
9496;SDS011;4786;51.270;4.456;2022-07-06T02:27:33;2.73;;;1.90;;
9496;SDS011;4786;51.270;4.456;2022-07-06T02:29:59;1.90;;;1.70;;
9496;SDS011;4786;51.270;4.456;2022-07-06T02:32:25;2.40;;;1.73;;
9496;SDS011;4786;51.270;4.456;2022-07-06T02:34:51;3.13;;;1.93;;
9496;SDS011;4786;51.270;4.456;2022-07-06T02:37:17;3.33;;;1.90;;
9496;SDS011;4786;51.270;4.456;2022-07-06T02:39:43;3.67;;;2.00;;
9496;SDS011;4786;51.270;4.456;2022-07-06T02:42:09;2.30;;;2.07;;
9496;SDS011;4786;51.270;4.456;2022-07-06T02:44:35;5.30;;;2.07;;
9496;SDS011;4786;51.270;4.456;2022-07-06T02:47:01;2.57;;;1.90;;
9496;SDS011;4786;51.270;4.456;2022-07-06T02:49:28;3.47;;;2.03;;
9496;SDS011;4786;51.270;4.456;2022-07-06T02:51:53;3.73;;;2.07;;
9496;SDS011;4786;51.270;4.456;2022-07-06T02:54:19;3.17;;;1.90;;
9496;SDS011;4786;51.270;4.456;2022-07-06T02:56:44;2.40;;;2.03;;
9496;SDS011;4786;51.270;4.456;2022-07-06T02:59:16;2.37;;;1.93;;
9496;SDS011;4786;51.270;4.456;2022-07-06T03:01:42;3.07;;;1.90;;
9496;SDS011;4786;51.270;4.456;2022-07-06T03:04:07;3.07;;;2.00;;
9496;SDS011;4786;51.270;4.456;2022-07-06T03:06:34;3.33;;;2.17;;
9496;SDS011;4786;51.270;4.456;2022-07-06T03:08:59;4.90;;;2.20;;
9496;SDS011;4786;51.270;4.456;2022-07-06T03:11:25;3.70;;;2.10;;
9496;SDS011;4786;51.270;4.456;2022-07-06T03:13:52;2.57;;;2.30;;
9496;SDS011;4786;51.270;4.456;2022-07-06T03:16:18;3.20;;;2.10;;
9496;SDS011;4786;51.270;4.456;2022-07-06T03:18:43;2.80;;;1.70;;
9496;SDS011;4786;51.270;4.456;2022-07-06T03:21:10;2.70;;;1.90;;
9496;SDS011;4786;51.270;4.456;2022-07-06T03:23:37;3.63;;;2.10;;
9496;SDS011;4786;51.270;4.456;2022-07-06T03:26:03;3.03;;;2.20;;
9496;SDS011;4786;51.270;4.456;2022-07-06T03:28:29;2.27;;;1.70;;
9496;SDS011;4786;51.270;4.456;2022-07-06T03:30:55;2.70;;;2.13;;
9496;SDS011;4786;51.270;4.456;2022-07-06T03:33:21;3.30;;;2.53;;
9496;SDS011;4786;51.270;4.456;2022-07-06T03:35:47;2.67;;;2.23;;
9496;SDS011;4786;51.270;4.456;2022-07-06T03:38:12;4.53;;;2.60;;
9496;SDS011;4786;51.270;4.456;2022-07-06T03:40:38;5.07;;;2.27;;
9496;SDS011;4786;51.270;4.456;2022-07-06T03:43:05;2.73;;;2.10;;
9496;SDS011;4786;51.270;4.456;2022-07-06T03:45:31;3.43;;;2.57;;
9496;SDS011;4786;51.270;4.456;2022-07-06T03:47:56;3.03;;;2.00;;
9496;SDS011;4786;51.270;4.456;2022-07-06T03:50:22;3.50;;;2.60;;
9496;SDS011;4786;51.270;4.456;2022-07-06T03:52:48;2.60;;;2.30;;
9496;SDS011;4786;51.270;4.456;2022-07-06T03:55:14;2.70;;;2.30;;
9496;SDS011;4786;51.270;4.456;2022-07-06T03:57:39;3.40;;;2.53;;
9496;SDS011;4786;51.270;4.456;2022-07-06T04:00:05;6.90;;;2.53;;
9496;SDS011;4786;51.270;4.456;2022-07-06T04:02:32;6.43;;;2.80;;
9496;SDS011;4786;51.270;4.456;2022-07-06T04:04:58;3.27;;;2.63;;
9496;SDS011;4786;51.270;4.456;2022-07-06T04:07:24;4.10;;;2.40;;
9496;SDS011;4786;51.270;4.456;2022-07-06T04:09:50;3.97;;;2.30;;
9496;SDS011;4786;51.270;4.456;2022-07-06T04:12:16;3.70;;;2.43;;
9496;SDS011;4786;51.270;4.456;2022-07-06T04:14:42;4.20;;;2.20;;
9496;SDS011;4786;51.270;4.456;2022-07-06T04:17:07;3.10;;;2.33;;
9496;SDS011;4786;51.270;4.456;2022-07-06T04:19:52;4.10;;;2.70;;
9496;SDS011;4786;51.270;4.456;2022-07-06T04:22:18;4.27;;;2.13;;
9496;SDS011;4786;51.270;4.456;2022-07-06T04:24:44;3.77;;;2.80;;
9496;SDS011;4786;51.270;4.456;2022-07-06T04:27:11;5.57;;;2.87;;
9496;SDS011;4786;51.270;4.456;2022-07-06T04:29:37;3.53;;;3.07;;
9496;SDS011;4786;51.270;4.456;2022-07-06T04:32:03;5.23;;;3.27;;
9496;SDS011;4786;51.270;4.456;2022-07-06T04:34:29;5.30;;;3.23;;
9496;SDS011;4786;51.270;4.456;2022-07-06T04:36:54;3.77;;;3.00;;
9496;SDS011;4786;51.270;4.456;2022-07-06T04:39:20;3.57;;;2.90;;
9496;SDS011;4786;51.270;4.456;2022-07-06T04:41:46;5.20;;;3.00;;
9496;SDS011;4786;51.270;4.456;2022-07-06T04:44:12;4.07;;;2.43;;
9496;SDS011;4786;51.270;4.456;2022-07-06T04:46:38;3.13;;;2.50;;
9496;SDS011;4786;51.270;4.456;2022-07-06T04:49:04;3.27;;;2.60;;
9496;SDS011;4786;51.270;4.456;2022-07-06T04:51:29;2.77;;;2.50;;
9496;SDS011;4786;51.270;4.456;2022-07-06T04:53:55;2.60;;;2.40;;
9496;SDS011;4786;51.270;4.456;2022-07-06T04:56:20;4.70;;;2.60;;
9496;SDS011;4786;51.270;4.456;2022-07-06T04:58:46;5.53;;;2.57;;
9496;SDS011;4786;51.270;4.456;2022-07-06T05:01:12;5.63;;;2.90;;
9496;SDS011;4786;51.270;4.456;2022-07-06T05:03:39;3.50;;;2.37;;
9496;SDS011;4786;51.270;4.456;2022-07-06T05:06:06;3.50;;;2.00;;
9496;SDS011;4786;51.270;4.456;2022-07-06T05:08:32;2.67;;;2.10;;
9496;SDS011;4786;51.270;4.456;2022-07-06T05:10:58;3.20;;;2.43;;
9496;SDS011;4786;51.270;4.456;2022-07-06T05:13:24;3.80;;;2.47;;
9496;SDS011;4786;51.270;4.456;2022-07-06T05:15:50;2.47;;;2.27;;
9496;SDS011;4786;51.270;4.456;2022-07-06T05:18:16;3.03;;;2.33;;
9496;SDS011;4786;51.270;4.456;2022-07-06T05:20:42;2.60;;;2.20;;
9496;SDS011;4786;51.270;4.456;2022-07-06T05:23:08;3.70;;;2.30;;
9496;SDS011;4786;51.270;4.456;2022-07-06T05:25:34;4.20;;;2.60;;
9496;SDS011;4786;51.270;4.456;2022-07-06T05:28:00;6.17;;;2.50;;
9496;SDS011;4786;51.270;4.456;2022-07-06T05:30:27;5.27;;;2.30;;
9496;SDS011;4786;51.270;4.456;2022-07-06T05:32:53;2.40;;;2.17;;
9496;SDS011;4786;51.270;4.456;2022-07-06T05:35:18;4.57;;;2.60;;
9496;SDS011;4786;51.270;4.456;2022-07-06T05:37:45;2.50;;;2.30;;
9496;SDS011;4786;51.270;4.456;2022-07-06T05:40:11;3.47;;;2.47;;
9496;SDS011;4786;51.270;4.456;2022-07-06T05:42:37;4.13;;;2.40;;
9496;SDS011;4786;51.270;4.456;2022-07-06T05:45:03;3.50;;;2.10;;
9496;SDS011;4786;51.270;4.456;2022-07-06T05:47:30;3.35;;;2.20;;
9496;SDS011;4786;51.270;4.456;2022-07-06T05:50:14;3.42;;;2.42;;
9496;SDS011;4786;51.270;4.456;2022-07-06T05:52:40;5.30;;;2.20;;
9496;SDS011;4786;51.270;4.456;2022-07-06T05:55:08;6.65;;;2.22;;
9496;SDS011;4786;51.270;4.456;2022-07-06T05:57:38;3.58;;;2.05;;
9496;SDS011;4786;51.270;4.456;2022-07-06T06:00:05;3.53;;;2.53;;
9496;SDS011;4786;51.270;4.456;2022-07-06T06:02:39;5.70;;;2.45;;
9496;SDS011;4786;51.270;4.456;2022-07-06T06:05:07;5.60;;;2.97;;
9496;SDS011;4786;51.270;4.456;2022-07-06T06:07:35;6.03;;;3.00;;
9496;SDS011;4786;51.270;4.456;2022-07-06T06:10:06;9.10;;;3.00;;
9496;SDS011;4786;51.270;4.456;2022-07-06T06:12:36;5.97;;;2.88;;
9496;SDS011;4786;51.270;4.456;2022-07-06T06:15:03;7.53;;;2.53;;
9496;SDS011;4786;51.270;4.456;2022-07-06T06:17:29;3.92;;;2.70;;
9496;SDS011;4786;51.270;4.456;2022-07-06T06:19:56;7.43;;;2.70;;
9496;SDS011;4786;51.270;4.456;2022-07-06T06:22:22;7.55;;;2.47;;
9496;SDS011;4786;51.270;4.456;2022-07-06T06:24:48;16.33;;;2.28;;
9496;SDS011;4786;51.270;4.456;2022-07-06T06:27:14;4.38;;;2.05;;
9496;SDS011;4786;51.270;4.456;2022-07-06T06:29:40;6.20;;;2.22;;
9496;SDS011;4786;51.270;4.456;2022-07-06T06:32:09;4.47;;;2.20;;
9496;SDS011;4786;51.270;4.456;2022-07-06T06:34:36;5.07;;;1.95;;
9496;SDS011;4786;51.270;4.456;2022-07-06T06:37:01;6.00;;;2.13;;
9496;SDS011;4786;51.270;4.456;2022-07-06T06:39:27;4.82;;;2.20;;
9496;SDS011;4786;51.270;4.456;2022-07-06T06:41:53;4.15;;;1.83;;
9496;SDS011;4786;51.270;4.456;2022-07-06T06:44:19;3.92;;;2.25;;
9496;SDS011;4786;51.270;4.456;2022-07-06T06:46:47;6.03;;;1.98;;
9496;SDS011;4786;51.270;4.456;2022-07-06T06:49:17;2.97;;;1.80;;
9496;SDS011;4786;51.270;4.456;2022-07-06T06:51:44;3.47;;;1.90;;
9496;SDS011;4786;51.270;4.456;2022-07-06T06:54:10;4.38;;;1.80;;
9496;SDS011;4786;51.270;4.456;2022-07-06T06:56:36;3.13;;;1.60;;
9496;SDS011;4786;51.270;4.456;2022-07-06T06:59:02;2.75;;;1.50;;
9496;SDS011;4786;51.270;4.456;2022-07-06T07:01:29;5.13;;;1.83;;
9496;SDS011;4786;51.270;4.456;2022-07-06T07:03:55;3.70;;;1.73;;
9496;SDS011;4786;51.270;4.456;2022-07-06T07:06:21;4.50;;;1.50;;
9496;SDS011;4786;51.270;4.456;2022-07-06T07:08:47;3.80;;;1.40;;
9496;SDS011;4786;51.270;4.456;2022-07-06T07:11:13;3.88;;;1.90;;
9496;SDS011;4786;51.270;4.456;2022-07-06T07:13:39;3.78;;;1.63;;
9496;SDS011;4786;51.270;4.456;2022-07-06T07:16:05;3.42;;;1.70;;
9496;SDS011;4786;51.270;4.456;2022-07-06T07:18:32;2.08;;;1.30;;
9496;SDS011;4786;51.270;4.456;2022-07-06T07:20:58;3.67;;;1.52;;
9496;SDS011;4786;51.270;4.456;2022-07-06T07:23:23;4.38;;;1.80;;
9496;SDS011;4786;51.270;4.456;2022-07-06T07:25:49;2.33;;;1.70;;
9496;SDS011;4786;51.270;4.456;2022-07-06T07:28:16;2.63;;;1.50;;
9496;SDS011;4786;51.270;4.456;2022-07-06T07:30:42;2.95;;;1.40;;
9496;SDS011;4786;51.270;4.456;2022-07-06T07:33:07;5.65;;;1.70;;
9496;SDS011;4786;51.270;4.456;2022-07-06T07:35:33;3.25;;;1.40;;
9496;SDS011;4786;51.270;4.456;2022-07-06T07:37:59;2.85;;;1.35;;
9496;SDS011;4786;51.270;4.456;2022-07-06T07:40:26;6.20;;;1.70;;
9496;SDS011;4786;51.270;4.456;2022-07-06T07:42:52;3.00;;;1.30;;
9496;SDS011;4786;51.270;4.456;2022-07-06T07:45:18;3.58;;;1.40;;
9496;SDS011;4786;51.270;4.456;2022-07-06T07:47:44;6.55;;;1.50;;
9496;SDS011;4786;51.270;4.456;2022-07-06T07:50:10;2.75;;;1.48;;
9496;SDS011;4786;51.270;4.456;2022-07-06T07:52:36;3.13;;;1.67;;
9496;SDS011;4786;51.270;4.456;2022-07-06T07:55:02;3.33;;;1.45;;
9496;SDS011;4786;51.270;4.456;2022-07-06T07:57:28;2.78;;;1.55;;
9496;SDS011;4786;51.270;4.456;2022-07-06T07:59:54;3.70;;;1.90;;
9496;SDS011;4786;51.270;4.456;2022-07-06T08:02:19;5.05;;;1.85;;
9496;SDS011;4786;51.270;4.456;2022-07-06T08:04:45;3.70;;;1.77;;
9496;SDS011;4786;51.270;4.456;2022-07-06T08:07:12;3.78;;;1.95;;
9496;SDS011;4786;51.270;4.456;2022-07-06T08:09:37;5.05;;;1.80;;
9496;SDS011;4786;51.270;4.456;2022-07-06T08:12:04;3.15;;;1.80;;
9496;SDS011;4786;51.270;4.456;2022-07-06T08:14:30;6.22;;;1.85;;
9496;SDS011;4786;51.270;4.456;2022-07-06T08:16:56;2.47;;;1.58;;
9496;SDS011;4786;51.270;4.456;2022-07-06T08:19:22;3.05;;;1.75;;
9496;SDS011;4786;51.270;4.456;2022-07-06T08:21:48;3.78;;;1.63;;
9496;SDS011;4786;51.270;4.456;2022-07-06T08:24:14;3.50;;;1.90;;
9496;SDS011;4786;51.270;4.456;2022-07-06T08:26:40;6.00;;;2.30;;
9496;SDS011;4786;51.270;4.456;2022-07-06T08:29:06;5.55;;;2.03;;
9496;SDS011;4786;51.270;4.456;2022-07-06T08:31:32;4.47;;;1.92;;
9496;SDS011;4786;51.270;4.456;2022-07-06T08:33:59;5.57;;;2.15;;
9496;SDS011;4786;51.270;4.456;2022-07-06T08:36:25;6.32;;;2.22;;
9496;SDS011;4786;51.270;4.456;2022-07-06T08:38:51;6.28;;;2.03;;
9496;SDS011;4786;51.270;4.456;2022-07-06T08:41:18;3.03;;;1.98;;
9496;SDS011;4786;51.270;4.456;2022-07-06T08:43:49;3.38;;;1.70;;
9496;SDS011;4786;51.270;4.456;2022-07-06T08:46:16;4.78;;;1.73;;
9496;SDS011;4786;51.270;4.456;2022-07-06T08:48:43;3.47;;;1.95;;
9496;SDS011;4786;51.270;4.456;2022-07-06T08:51:11;4.05;;;2.10;;
9496;SDS011;4786;51.270;4.456;2022-07-06T08:53:42;5.43;;;1.77;;
9496;SDS011;4786;51.270;4.456;2022-07-06T08:56:10;4.25;;;2.00;;
9496;SDS011;4786;51.270;4.456;2022-07-06T08:58:36;6.15;;;1.95;;
9496;SDS011;4786;51.270;4.456;2022-07-06T09:01:02;4.43;;;1.73;;
9496;SDS011;4786;51.270;4.456;2022-07-06T09:03:28;5.05;;;2.00;;
9496;SDS011;4786;51.270;4.456;2022-07-06T09:05:56;2.83;;;1.70;;
9496;SDS011;4786;51.270;4.456;2022-07-06T09:08:29;3.78;;;1.50;;
9496;SDS011;4786;51.270;4.456;2022-07-06T09:10:56;2.20;;;1.48;;
9496;SDS011;4786;51.270;4.456;2022-07-06T09:13:22;3.47;;;1.65;;
9496;SDS011;4786;51.270;4.456;2022-07-06T09:15:48;3.25;;;1.48;;
9496;SDS011;4786;51.270;4.456;2022-07-06T09:18:14;3.72;;;1.20;;
9496;SDS011;4786;51.270;4.456;2022-07-06T09:20:41;3.65;;;1.58;;
9496;SDS011;4786;51.270;4.456;2022-07-06T09:23:07;2.90;;;1.30;;
9496;SDS011;4786;51.270;4.456;2022-07-06T09:25:34;3.08;;;1.50;;
9496;SDS011;4786;51.270;4.456;2022-07-06T09:28:01;2.97;;;1.35;;
9496;SDS011;4786;51.270;4.456;2022-07-06T09:30:28;4.20;;;1.60;;
9496;SDS011;4786;51.270;4.456;2022-07-06T09:32:55;4.15;;;1.65;;
9496;SDS011;4786;51.270;4.456;2022-07-06T09:40:34;5.28;;;1.50;;
9496;SDS011;4786;51.270;4.456;2022-07-06T09:45:41;3.78;;;1.38;;
9496;SDS011;4786;51.270;4.456;2022-07-06T09:48:12;4.43;;;1.40;;
9496;SDS011;4786;51.270;4.456;2022-07-06T09:50:58;3.30;;;1.33;;
9496;SDS011;4786;51.270;4.456;2022-07-06T09:53:34;3.80;;;1.30;;
9496;SDS011;4786;51.270;4.456;2022-07-06T09:56:01;7.05;;;1.83;;
9496;SDS011;4786;51.270;4.456;2022-07-06T09:58:30;3.80;;;1.60;;
9496;SDS011;4786;51.270;4.456;2022-07-06T10:00:56;5.32;;;1.70;;
9496;SDS011;4786;51.270;4.456;2022-07-06T10:03:22;5.43;;;1.70;;
9496;SDS011;4786;51.270;4.456;2022-07-06T10:05:49;3.17;;;1.30;;
9496;SDS011;4786;51.270;4.456;2022-07-06T10:08:15;1.65;;;1.35;;
9496;SDS011;4786;51.270;4.456;2022-07-06T10:10:42;2.40;;;1.25;;
9496;SDS011;4786;51.270;4.456;2022-07-06T10:13:09;3.30;;;1.45;;
9496;SDS011;4786;51.270;4.456;2022-07-06T10:15:37;2.00;;;1.33;;
9496;SDS011;4786;51.270;4.456;2022-07-06T10:18:06;2.55;;;1.40;;
9496;SDS011;4786;51.270;4.456;2022-07-06T10:20:34;2.25;;;1.67;;
9496;SDS011;4786;51.270;4.456;2022-07-06T10:23:06;3.47;;;1.95;;
9496;SDS011;4786;51.270;4.456;2022-07-06T10:25:33;3.42;;;1.65;;
9496;SDS011;4786;51.270;4.456;2022-07-06T10:27:59;3.75;;;1.73;;
9496;SDS011;4786;51.270;4.456;2022-07-06T10:30:27;4.60;;;1.77;;
9496;SDS011;4786;51.270;4.456;2022-07-06T10:32:54;2.88;;;1.52;;
9496;SDS011;4786;51.270;4.456;2022-07-06T10:35:21;2.88;;;1.60;;
9496;SDS011;4786;51.270;4.456;2022-07-06T10:38:06;6.22;;;1.58;;
9496;SDS011;4786;51.270;4.456;2022-07-06T10:40:34;3.47;;;1.52;;
9496;SDS011;4786;51.270;4.456;2022-07-06T10:43:22;2.90;;;1.48;;
9496;SDS011;4786;51.270;4.456;2022-07-06T10:53:21;4.13;;;1.75;;
9496;SDS011;4786;51.270;4.456;2022-07-06T10:55:49;2.83;;;1.70;;
9496;SDS011;4786;51.270;4.456;2022-07-06T11:01:02;4.60;;;1.60;;
9496;SDS011;4786;51.270;4.456;2022-07-06T11:03:40;6.65;;;2.38;;
9496;SDS011;4786;51.270;4.456;2022-07-06T11:08:46;3.25;;;1.65;;
9496;SDS011;4786;51.270;4.456;2022-07-06T11:14:06;4.13;;;1.90;;
9496;SDS011;4786;51.270;4.456;2022-07-06T11:19:14;2.70;;;1.50;;
9496;SDS011;4786;51.270;4.456;2022-07-06T11:21:45;5.40;;;1.65;;
9496;SDS011;4786;51.270;4.456;2022-07-06T11:24:14;6.88;;;1.67;;
9496;SDS011;4786;51.270;4.456;2022-07-06T11:26:43;3.33;;;1.50;;
9496;SDS011;4786;51.270;4.456;2022-07-06T11:29:11;4.45;;;1.60;;
9496;SDS011;4786;51.270;4.456;2022-07-06T11:31:42;4.07;;;1.90;;
9496;SDS011;4786;51.270;4.456;2022-07-06T11:34:11;5.57;;;1.58;;
9496;SDS011;4786;51.270;4.456;2022-07-06T11:36:39;2.92;;;1.60;;
9496;SDS011;4786;51.270;4.456;2022-07-06T11:39:06;3.70;;;1.60;;
9496;SDS011;4786;51.270;4.456;2022-07-06T11:41:32;3.28;;;1.70;;
9496;SDS011;4786;51.270;4.456;2022-07-06T11:43:58;2.50;;;1.42;;
9496;SDS011;4786;51.270;4.456;2022-07-06T11:48:50;2.83;;;1.70;;
9496;SDS011;4786;51.270;4.456;2022-07-06T11:51:21;2.97;;;1.73;;
9496;SDS011;4786;51.270;4.456;2022-07-06T11:53:57;3.80;;;1.70;;
9496;SDS011;4786;51.270;4.456;2022-07-06T11:56:25;3.65;;;2.03;;
9496;SDS011;4786;51.270;4.456;2022-07-06T11:58:58;3.65;;;1.50;;
9496;SDS011;4786;51.270;4.456;2022-07-06T12:01:26;5.75;;;1.98;;
9496;SDS011;4786;51.270;4.456;2022-07-06T12:03:57;3.35;;;1.90;;
9496;SDS011;4786;51.270;4.456;2022-07-06T12:06:25;5.18;;;1.88;;
9496;SDS011;4786;51.270;4.456;2022-07-06T12:08:54;2.85;;;1.67;;
9496;SDS011;4786;51.270;4.456;2022-07-06T12:13:49;4.80;;;1.80;;
9496;SDS011;4786;51.270;4.456;2022-07-06T12:16:16;2.63;;;1.58;;
9496;SDS011;4786;51.270;4.456;2022-07-06T12:18:44;4.00;;;2.03;;
9496;SDS011;4786;51.270;4.456;2022-07-06T12:21:13;4.53;;;1.98;;
9496;SDS011;4786;51.270;4.456;2022-07-06T12:23:44;4.40;;;1.83;;
9496;SDS011;4786;51.270;4.456;2022-07-06T12:26:12;2.53;;;1.63;;
9496;SDS011;4786;51.270;4.456;2022-07-06T12:28:39;4.32;;;1.83;;
9496;SDS011;4786;51.270;4.456;2022-07-06T12:31:06;3.88;;;1.88;;
9496;SDS011;4786;51.270;4.456;2022-07-06T12:33:32;3.50;;;2.00;;
9496;SDS011;4786;51.270;4.456;2022-07-06T12:36:08;6.05;;;1.80;;
9496;SDS011;4786;51.270;4.456;2022-07-06T12:38:47;5.72;;;1.88;;
9496;SDS011;4786;51.270;4.456;2022-07-06T12:41:27;3.95;;;1.70;;
9496;SDS011;4786;51.270;4.456;2022-07-06T12:44:05;4.78;;;2.13;;
9496;SDS011;4786;51.270;4.456;2022-07-06T12:46:36;4.60;;;1.83;;
9496;SDS011;4786;51.270;4.456;2022-07-06T12:49:10;3.28;;;1.73;;
9496;SDS011;4786;51.270;4.456;2022-07-06T12:54:26;3.97;;;2.08;;
9496;SDS011;4786;51.270;4.456;2022-07-06T12:59:46;7.55;;;1.92;;
9496;SDS011;4786;51.270;4.456;2022-07-06T13:02:24;3.55;;;2.00;;
9496;SDS011;4786;51.270;4.456;2022-07-06T13:05:04;5.85;;;2.67;;
9496;SDS011;4786;51.270;4.456;2022-07-06T13:07:35;5.05;;;2.10;;
9496;SDS011;4786;51.270;4.456;2022-07-06T13:10:03;4.55;;;2.55;;
9496;SDS011;4786;51.270;4.456;2022-07-06T13:12:31;5.63;;;2.65;;
9496;SDS011;4786;51.270;4.456;2022-07-06T13:14:57;5.18;;;2.15;;
9496;SDS011;4786;51.270;4.456;2022-07-06T13:17:23;5.82;;;2.40;;
9496;SDS011;4786;51.270;4.456;2022-07-06T13:19:50;4.90;;;2.20;;
9496;SDS011;4786;51.270;4.456;2022-07-06T13:22:16;4.65;;;2.10;;
9496;SDS011;4786;51.270;4.456;2022-07-06T13:24:42;5.82;;;2.50;;
9496;SDS011;4786;51.270;4.456;2022-07-06T13:27:07;4.85;;;2.10;;
9496;SDS011;4786;51.270;4.456;2022-07-06T13:29:34;4.07;;;2.30;;
9496;SDS011;4786;51.270;4.456;2022-07-06T13:32:00;4.78;;;2.10;;
9496;SDS011;4786;51.270;4.456;2022-07-06T13:34:26;5.72;;;2.60;;
9496;SDS011;4786;51.270;4.456;2022-07-06T13:36:52;4.30;;;2.33;;
9496;SDS011;4786;51.270;4.456;2022-07-06T13:39:18;3.10;;;2.10;;
9496;SDS011;4786;51.270;4.456;2022-07-06T13:41:44;4.43;;;2.33;;
9496;SDS011;4786;51.270;4.456;2022-07-06T13:44:10;5.35;;;2.40;;
9496;SDS011;4786;51.270;4.456;2022-07-06T13:46:37;4.35;;;2.42;;
9496;SDS011;4786;51.270;4.456;2022-07-06T13:49:07;4.70;;;2.22;;
9496;SDS011;4786;51.270;4.456;2022-07-06T13:51:33;4.85;;;2.05;;
9496;SDS011;4786;51.270;4.456;2022-07-06T13:53:59;3.85;;;2.20;;
9496;SDS011;4786;51.270;4.456;2022-07-06T13:56:25;3.92;;;2.58;;
9496;SDS011;4786;51.270;4.456;2022-07-06T13:58:52;5.13;;;2.20;;
9496;SDS011;4786;51.270;4.456;2022-07-06T14:01:18;10.68;;;2.45;;
9496;SDS011;4786;51.270;4.456;2022-07-06T14:03:44;4.28;;;2.00;;
9496;SDS011;4786;51.270;4.456;2022-07-06T14:06:10;5.03;;;2.17;;
9496;SDS011;4786;51.270;4.456;2022-07-06T14:08:37;5.30;;;2.78;;
9496;SDS011;4786;51.270;4.456;2022-07-06T14:11:04;8.43;;;3.53;;
9496;SDS011;4786;51.270;4.456;2022-07-06T14:13:31;7.70;;;2.80;;
9496;SDS011;4786;51.270;4.456;2022-07-06T14:15:57;6.10;;;2.58;;
9496;SDS011;4786;51.270;4.456;2022-07-06T14:18:23;5.75;;;3.10;;
9496;SDS011;4786;51.270;4.456;2022-07-06T14:20:49;7.18;;;2.95;;
9496;SDS011;4786;51.270;4.456;2022-07-06T14:23:16;10.13;;;2.92;;
9496;SDS011;4786;51.270;4.456;2022-07-06T14:25:43;3.72;;;2.20;;
9496;SDS011;4786;51.270;4.456;2022-07-06T14:28:09;5.63;;;2.42;;
9496;SDS011;4786;51.270;4.456;2022-07-06T14:30:38;5.07;;;2.75;;
9496;SDS011;4786;51.270;4.456;2022-07-06T14:33:05;6.88;;;2.67;;
9496;SDS011;4786;51.270;4.456;2022-07-06T14:35:39;4.75;;;3.00;;
9496;SDS011;4786;51.270;4.456;2022-07-06T14:38:14;6.63;;;3.03;;
9496;SDS011;4786;51.270;4.456;2022-07-06T14:40:40;9.23;;;2.70;;
9496;SDS011;4786;51.270;4.456;2022-07-06T14:43:06;10.68;;;4.15;;
9496;SDS011;4786;51.270;4.456;2022-07-06T14:45:32;5.82;;;3.25;;
9496;SDS011;4786;51.270;4.456;2022-07-06T14:47:58;4.85;;;3.13;;
9496;SDS011;4786;51.270;4.456;2022-07-06T14:50:24;7.00;;;3.08;;
9496;SDS011;4786;51.270;4.456;2022-07-06T14:52:51;5.13;;;2.88;;
9496;SDS011;4786;51.270;4.456;2022-07-06T14:55:18;6.97;;;2.75;;
9496;SDS011;4786;51.270;4.456;2022-07-06T14:57:44;5.18;;;3.10;;
9496;SDS011;4786;51.270;4.456;2022-07-06T15:00:10;4.13;;;2.65;;
9496;SDS011;4786;51.270;4.456;2022-07-06T15:02:36;8.45;;;2.83;;
9496;SDS011;4786;51.270;4.456;2022-07-06T15:05:02;4.95;;;2.80;;
9496;SDS011;4786;51.270;4.456;2022-07-06T15:07:29;6.38;;;2.78;;
9496;SDS011;4786;51.270;4.456;2022-07-06T15:09:55;3.83;;;2.35;;
9496;SDS011;4786;51.270;4.456;2022-07-06T15:12:22;5.90;;;2.60;;
9496;SDS011;4786;51.270;4.456;2022-07-06T15:14:47;6.80;;;2.10;;
9496;SDS011;4786;51.270;4.456;2022-07-06T15:17:13;2.00;;;1.75;;
9496;SDS011;4786;51.270;4.456;2022-07-06T15:19:39;2.78;;;1.95;;
9496;SDS011;4786;51.270;4.456;2022-07-06T15:22:06;3.53;;;2.03;;
9496;SDS011;4786;51.270;4.456;2022-07-06T15:24:31;2.70;;;1.98;;
9496;SDS011;4786;51.270;4.456;2022-07-06T15:26:57;6.38;;;2.40;;
9496;SDS011;4786;51.270;4.456;2022-07-06T15:29:23;5.63;;;2.40;;
9496;SDS011;4786;51.270;4.456;2022-07-06T15:31:50;5.07;;;2.33;;
9496;SDS011;4786;51.270;4.456;2022-07-06T15:34:16;3.55;;;2.13;;
9496;SDS011;4786;51.270;4.456;2022-07-06T15:36:42;4.07;;;2.17;;
9496;SDS011;4786;51.270;4.456;2022-07-06T15:39:10;3.38;;;2.50;;
9496;SDS011;4786;51.270;4.456;2022-07-06T15:41:36;4.50;;;2.47;;
9496;SDS011;4786;51.270;4.456;2022-07-06T15:44:02;9.15;;;3.25;;
9496;SDS011;4786;51.270;4.456;2022-07-06T15:46:29;3.35;;;2.45;;
9496;SDS011;4786;51.270;4.456;2022-07-06T15:48:54;4.55;;;2.90;;
9496;SDS011;4786;51.270;4.456;2022-07-06T15:51:21;6.40;;;3.17;;